Cohagen, Montana
Current Conditions -  °F | °C
As of 9:53 PM on Tuesday 25 Nov 2014 (Local Time) from KMLS Reporting Station
Overcast Overcast  
Wind Chill: 22°   Ceiling: 1100
Heat Index: 28°   Visibility: 10mi
Dew Point: 23°   Wind: 6mph
Humidity: 81%   Direction: 360°N
Pressure: 30.17"   Gusts: NA
Location:  47.05°N, 106.62°W
Report Text: KMLS 260453Z AUTO 36005KT 10SM OVC011 M02/M05 A3017 RMK AO2 SLP241 T10221050
Loading
Personal Weather Stations






























Interactive Weather Map New forecast layout! Learn more

10-Day Weather Forecast

Advertisements
Track Severe Weather on mobile